Time;durP1;ratioP1;P1;durP2;ratioP2;P2;SDS_P1;SDS_P2;PMS_P1;PMS_P2;Temp;Humidity;BMP_temperature;BMP_pressure;BME280_temperature;BME280_humidity;BME280_pressure;Samples;Min_cycle;Max_cycle;Signal;HPM_P1;HPM_P2
2021/10/17 10:03:14;;;;;;;15.25;7.05;;;11.20;99.90;;;;;;11926963;28;20400;-61
2021/10/17 10:09:03;;;;;;;12.52;7.00;;;12.10;99.90;;;;;;11899410;28;20049;-62
2021/10/17 10:14:51;;;;;;;11.63;7.07;;;12.80;99.90;;;;;;11924563;28;20041;-62
2021/10/17 10:20:40;;;;;;;10.32;6.55;;;13.20;99.90;;;;;;11954069;28;20080;-61
2021/10/17 10:26:30;;;;;;;11.70;6.63;;;13.50;99.90;;;;;;11937027;28;20049;-62
2021/10/17 10:32:23;;;;;;;18.02;7.78;;;13.80;99.90;;;;;;11906013;28;20430;-61
2021/10/17 10:38:11;;;;;;;13.40;6.60;;;14.00;99.90;;;;;;11919553;28;20132;-60
2021/10/17 10:44:16;;;;;;;9.88;5.65;;;14.10;99.90;;;;;;11936382;28;20057;-61
2021/10/17 10:50:03;;;;;;;12.68;6.25;;;14.20;99.90;;;;;;11949229;28;20049;-62
2021/10/17 10:55:53;;;;;;;9.25;5.20;;;14.40;99.90;;;;;;11931178;28;20061;-60
2021/10/17 11:02:14;;;;;;;11.80;5.22;;;14.60;99.90;;;;;;11894240;28;20166;-61
2021/10/17 11:08:12;;;;;;;11.25;4.82;;;14.70;99.90;;;;;;11932991;28;20053;-60
2021/10/17 11:14:15;;;;;;;8.50;3.92;;;14.80;99.90;;;;;;11883049;28;20056;-61
2021/10/17 11:20:04;;;;;;;8.27;4.57;;;14.90;99.90;;;;;;11892024;28;20045;-62
2021/10/17 11:25:53;;;;;;;12.20;5.38;;;15.00;99.90;;;;;;11891025;28;20391;-63
2021/10/17 11:31:41;;;;;;;9.48;4.63;;;15.10;99.90;;;;;;11841149;28;20495;-61
2021/10/17 11:37:30;;;;;;;10.80;5.15;;;15.10;99.90;;;;;;11853410;28;20538;-62
2021/10/17 11:43:17;;;;;;;8.85;4.40;;;15.20;99.90;;;;;;11851408;28;20525;-61
2021/10/17 11:49:11;;;;;;;8.35;4.10;;;15.30;99.90;;;;;;11867121;28;20053;-63
2021/10/17 11:54:58;;;;;;;9.10;4.70;;;15.40;99.90;;;;;;11898286;28;20065;-61
2021/10/17 12:00:47;;;;;;;7.18;4.18;;;15.40;99.90;;;;;;11865731;28;20062;-62
2021/10/17 12:06:35;;;;;;;11.75;4.68;;;15.40;99.90;;;;;;11908641;28;20054;-61
2021/10/17 12:12:23;;;;;;;6.55;3.70;;;15.50;99.90;;;;;;11924747;28;20042;-61
2021/10/17 12:18:09;;;;;;;5.88;3.20;;;15.60;99.90;;;;;;11917065;28;20061;-61
2021/10/17 12:23:58;;;;;;;5.60;3.50;;;15.80;99.90;;;;;;11899795;28;20050;-61
2021/10/17 12:29:45;;;;;;;5.78;3.78;;;16.00;99.90;;;;;;11900381;28;20544;-61
2021/10/17 12:35:34;;;;;;;7.20;3.60;;;16.10;99.90;;;;;;11900501;28;20050;-61
2021/10/17 12:41:28;;;;;;;6.95;2.80;;;16.20;99.90;;;;;;11899848;28;20057;-62
2021/10/17 12:47:15;;;;;;;4.90;2.90;;;16.40;99.90;;;;;;11899118;28;20066;-62
2021/10/17 12:53:06;;;;;;;3.83;2.63;;;16.80;99.90;;;;;;11899312;28;20046;-61
2021/10/17 12:59:10;;;;;;;6.13;2.80;;;16.90;99.90;;;;;;11898085;28;20100;-61
2021/10/17 13:04:59;;;;;;;4.53;2.45;;;16.90;99.90;;;;;;11895142;28;20051;-62
2021/10/17 13:10:46;;;;;;;6.30;2.85;;;16.80;99.90;;;;;;11898457;28;20137;-62
2021/10/17 13:16:39;;;;;;;6.15;2.60;;;16.90;99.90;;;;;;11886599;28;20184;-62
2021/10/17 13:22:26;;;;;;;5.63;2.38;;;16.90;99.90;;;;;;11899596;28;20066;-61
2021/10/17 13:28:13;;;;;;;7.55;2.60;;;17.10;99.90;;;;;;11875865;28;20422;-61
2021/10/17 13:34:01;;;;;;;5.40;2.30;;;17.40;99.10;;;;;;11895191;28;20049;-62
2021/10/17 13:39:48;;;;;;;2.95;2.17;;;17.70;98.10;;;;;;11849785;28;20056;-61
2021/10/17 13:45:36;;;;;;;3.75;1.98;;;18.00;97.00;;;;;;11871047;28;20122;-62
2021/10/17 13:51:24;;;;;;;6.28;2.53;;;18.30;96.20;;;;;;11869505;28;20056;-61
2021/10/17 13:57:11;;;;;;;5.05;2.40;;;18.40;95.90;;;;;;11863302;28;20049;-62
2021/10/17 14:02:58;;;;;;;5.50;2.97;;;18.20;94.90;;;;;;11854954;28;20097;-61
2021/10/17 14:08:46;;;;;;;6.05;3.38;;;18.00;96.10;;;;;;11841463;28;20056;-61
2021/10/17 14:14:33;;;;;;;4.10;2.88;;;18.00;96.40;;;;;;11847465;28;20066;-62
2021/10/17 14:20:20;;;;;;;5.68;2.83;;;18.20;95.30;;;;;;11848375;28;20054;-60
2021/10/17 14:26:08;;;;;;;7.15;3.15;;;18.10;95.50;;;;;;11846221;28;20097;-61
2021/10/17 14:31:55;;;;;;;5.35;2.40;;;18.20;95.40;;;;;;11872814;28;20422;-61
2021/10/17 14:37:42;;;;;;;5.60;3.38;;;18.10;95.10;;;;;;11859874;28;20050;-61
2021/10/17 14:43:30;;;;;;;5.25;3.40;;;18.00;95.70;;;;;;11870458;28;20047;-61
2021/10/17 14:49:17;;;;;;;8.40;5.63;;;17.80;96.00;;;;;;11871679;28;20047;-61
2021/10/17 14:55:05;;;;;;;5.68;3.30;;;17.80;95.70;;;;;;11903757;28;20046;-62
2021/10/17 15:00:53;;;;;;;4.72;2.85;;;17.70;95.10;;;;;;11903783;28;20667;-62
2021/10/17 15:06:40;;;;;;;8.52;4.88;;;17.50;95.20;;;;;;11906805;28;20046;-61
2021/10/17 15:12:27;;;;;;;9.48;5.03;;;17.30;95.60;;;;;;11896768;28;20052;-61
2021/10/17 15:24:17;;;;;;;;;;;17.00;96.30;;;;;;11900862;28;20038;-62
2021/10/17 15:30:05;;;;;;;8.25;3.97;;;16.90;96.50;;;;;;11902725;28;20012;-61
2021/10/17 15:35:53;;;;;;;5.32;2.70;;;16.90;96.30;;;;;;11902123;28;20050;-61
2021/10/17 15:41:40;;;;;;;5.80;2.60;;;16.80;96.20;;;;;;11902172;28;20434;-61
2021/10/17 15:47:27;;;;;;;4.88;3.25;;;16.60;96.20;;;;;;11901847;28;20057;-61
2021/10/17 15:53:15;;;;;;;4.75;2.78;;;16.50;96.40;;;;;;11901579;28;20046;-61
2021/10/17 15:59:03;;;;;;;5.82;2.88;;;16.30;96.70;;;;;;11901430;28;20041;-62
2021/10/17 16:04:50;;;;;;;6.32;3.22;;;16.20;97.20;;;;;;11901306;28;20058;-61
2021/10/17 16:10:38;;;;;;;5.78;3.10;;;16.20;97.70;;;;;;11901335;28;20046;-62
2021/10/17 16:16:25;;;;;;;6.25;3.03;;;16.10;97.90;;;;;;11902773;28;20104;-61
2021/10/17 16:22:12;;;;;;;5.43;3.17;;;16.00;97.90;;;;;;11900329;28;20050;-60
2021/10/17 16:28:01;;;;;;;6.85;3.83;;;15.90;98.40;;;;;;11900499;28;20513;-60
2021/10/17 16:33:49;;;;;;;8.32;3.47;;;15.80;98.40;;;;;;11900259;28;20050;-61
2021/10/17 16:39:36;;;;;;;4.80;3.58;;;15.70;98.90;;;;;;11900123;28;20058;-61
2021/10/17 16:45:24;;;;;;;11.23;4.10;;;15.60;99.30;;;;;;11899265;28;20050;-62
2021/10/17 16:51:11;;;;;;;10.73;4.13;;;15.50;99.90;;;;;;11898629;28;20042;-61
2021/10/17 16:56:58;;;;;;;8.60;4.72;;;15.40;99.90;;;;;;11899391;28;20050;-61
2021/10/17 17:02:46;;;;;;;15.13;5.15;;;15.30;99.90;;;;;;11901996;28;20052;-60
2021/10/17 17:08:33;;;;;;;8.95;5.15;;;15.30;99.90;;;;;;11886976;28;20045;-61
2021/10/17 17:14:20;;;;;;;8.20;4.70;;;15.20;99.90;;;;;;11893830;28;20530;-61
2021/10/17 17:20:11;;;;;;;6.70;4.30;;;15.20;99.90;;;;;;11895815;28;20657;-63
2021/10/17 17:25:58;;;;;;;11.43;4.60;;;15.00;99.90;;;;;;11897246;28;20053;-62
2021/10/17 17:31:45;;;;;;;10.07;4.57;;;14.90;99.90;;;;;;11891358;28;20061;-61
2021/10/17 17:37:33;;;;;;;6.50;4.15;;;14.80;99.90;;;;;;11897412;28;20053;-61
2021/10/17 17:43:20;;;;;;;13.43;5.47;;;14.70;99.90;;;;;;11898662;28;20076;-61
2021/10/17 17:49:07;;;;;;;18.83;11.75;;;14.60;99.90;;;;;;11896952;28;20427;-60
2021/10/17 17:54:55;;;;;;;10.52;5.78;;;14.40;99.90;;;;;;11896980;28;20050;-61
2021/10/17 18:00:42;;;;;;;10.98;5.88;;;14.40;99.90;;;;;;11892623;28;20048;-60
2021/10/17 18:06:29;;;;;;;11.98;6.03;;;14.50;99.90;;;;;;11888535;28;20053;-61
2021/10/17 18:12:17;;;;;;;14.45;7.22;;;14.40;99.90;;;;;;11896822;28;20062;-61
2021/10/17 18:18:04;;;;;;;10.32;6.10;;;14.40;99.90;;;;;;11896101;28;20497;-61
2021/10/17 18:23:51;;;;;;;13.52;6.40;;;14.30;99.90;;;;;;11903750;28;20054;-61
2021/10/17 18:29:39;;;;;;;11.43;6.70;;;14.30;99.90;;;;;;11905277;28;20053;-60
2021/10/17 18:35:30;;;;;;;12.77;7.25;;;14.20;99.90;;;;;;11905240;28;20050;-61
2021/10/17 18:41:17;;;;;;;31.27;14.50;;;14.10;99.90;;;;;;11904469;28;20065;-61
2021/10/17 18:47:06;;;;;;;30.95;13.48;;;14.10;99.90;;;;;;11904446;28;20042;-61
2021/10/17 18:52:54;;;;;;;26.27;13.40;;;14.10;99.90;;;;;;11892553;28;20046;-61
2021/10/17 18:58:41;;;;;;;24.70;11.90;;;14.00;99.90;;;;;;11902543;28;20199;-61
2021/10/17 19:04:29;;;;;;;32.80;16.15;;;14.00;99.90;;;;;;11906218;28;20064;-61
2021/10/17 19:10:16;;;;;;;62.22;27.33;;;13.90;99.90;;;;;;11903757;28;20519;-62
2021/10/17 19:16:03;;;;;;;31.95;15.35;;;13.90;99.90;;;;;;11903698;28;20047;-61
2021/10/17 19:21:51;;;;;;;51.92;25.88;;;13.90;99.90;;;;;;11903328;28;20433;-61
2021/10/17 19:27:39;;;;;;;68.65;30.88;;;13.80;99.90;;;;;;11903210;28;20053;-61
2021/10/17 19:33:27;;;;;;;30.05;16.35;;;13.80;99.90;;;;;;11903002;28;20046;-59
2021/10/17 19:39:15;;;;;;;21.73;11.55;;;13.70;99.90;;;;;;11907014;28;20050;-60
2021/10/17 19:45:02;;;;;;;17.35;11.02;;;13.70;99.90;;;;;;11905560;28;20054;-61
2021/10/17 19:50:49;;;;;;;14.43;9.75;;;13.60;99.90;;;;;;11902006;28;20129;-60
2021/10/17 19:56:37;;;;;;;15.57;9.93;;;13.50;99.90;;;;;;11901380;28;20065;-61
2021/10/17 20:02:24;;;;;;;17.20;9.25;;;13.50;99.90;;;;;;11896881;28;20083;-61
2021/10/17 20:08:11;;;;;;;21.55;10.45;;;13.50;99.90;;;;;;11901392;28;20038;-62
2021/10/17 20:13:59;;;;;;;18.20;10.68;;;13.40;99.90;;;;;;11900791;28;20410;-61
2021/10/17 20:19:46;;;;;;;19.30;10.80;;;13.40;99.90;;;;;;11900523;28;20046;-61
2021/10/17 20:25:33;;;;;;;20.60;11.77;;;13.30;99.90;;;;;;11900126;28;20053;-60
2021/10/17 20:31:22;;;;;;;18.15;11.77;;;13.30;99.90;;;;;;11901388;28;20049;-60
2021/10/17 20:37:17;;;;;;;19.17;11.65;;;13.20;99.90;;;;;;11900103;28;20053;-59
2021/10/17 20:43:04;;;;;;;20.55;12.30;;;13.20;99.90;;;;;;11898950;28;20042;-60
2021/10/17 20:48:53;;;;;;;20.75;11.43;;;13.20;99.90;;;;;;11898863;28;20051;-61
2021/10/17 20:54:40;;;;;;;23.55;11.48;;;13.20;99.90;;;;;;11899328;28;20565;-60
2021/10/17 21:00:27;;;;;;;22.92;13.90;;;13.20;99.90;;;;;;11897666;28;20065;-61
2021/10/17 21:06:16;;;;;;;21.77;13.95;;;13.10;99.90;;;;;;11866385;28;20054;-61
2021/10/17 21:18:04;;;;;;;21.45;13.02;;;13.00;99.90;;;;;;11896704;28;20038;-60
2021/10/17 21:23:52;;;;;;;25.13;12.27;;;13.00;99.90;;;;;;11894978;28;20473;-60
2021/10/17 21:29:39;;;;;;;25.75;13.30;;;12.90;99.90;;;;;;11907108;28;20044;-61
2021/10/17 21:35:26;;;;;;;20.65;12.00;;;12.90;99.90;;;;;;11895967;28;20050;-60
2021/10/17 21:41:14;;;;;;;19.83;12.50;;;12.90;99.90;;;;;;11899101;28;20084;-60
2021/10/17 21:47:01;;;;;;;20.58;13.05;;;12.80;99.90;;;;;;11897676;28;20506;-60
2021/10/17 21:52:48;;;;;;;25.13;13.60;;;12.80;99.90;;;;;;11868426;28;20062;-60
2021/10/17 21:58:37;;;;;;;21.83;12.63;;;12.70;99.90;;;;;;11893939;28;20506;-60
2021/10/17 22:04:24;;;;;;;22.67;13.55;;;12.70;99.90;;;;;;11902464;28;20054;-60
2021/10/17 22:10:11;;;;;;;25.00;12.63;;;12.60;99.90;;;;;;11888398;28;20045;-60
